sensor_id;sensor_type;location;lat;lon;timestamp;P1;durP1;ratioP1;P2;durP2;ratioP2
9124;SDS011;4597;48.730;9.114;2022-08-21T00:02:15;2.20;;;2.00;;
9124;SDS011;4597;48.730;9.114;2022-08-21T00:04:41;4.00;;;2.07;;
9124;SDS011;4597;48.730;9.114;2022-08-21T00:07:07;3.37;;;2.13;;
9124;SDS011;4597;48.730;9.114;2022-08-21T00:09:33;5.07;;;2.50;;
9124;SDS011;4597;48.730;9.114;2022-08-21T00:11:58;3.33;;;2.10;;
9124;SDS011;4597;48.730;9.114;2022-08-21T00:14:24;4.03;;;2.10;;
9124;SDS011;4597;48.730;9.114;2022-08-21T00:16:49;2.60;;;1.97;;
9124;SDS011;4597;48.730;9.114;2022-08-21T00:19:15;2.77;;;2.20;;
9124;SDS011;4597;48.730;9.114;2022-08-21T00:21:40;2.40;;;2.20;;
9124;SDS011;4597;48.730;9.114;2022-08-21T00:24:06;2.20;;;2.10;;
9124;SDS011;4597;48.730;9.114;2022-08-21T00:26:31;2.53;;;2.23;;
9124;SDS011;4597;48.730;9.114;2022-08-21T00:28:57;3.23;;;2.23;;
9124;SDS011;4597;48.730;9.114;2022-08-21T00:31:23;2.47;;;2.30;;
9124;SDS011;4597;48.730;9.114;2022-08-21T00:33:48;3.13;;;2.10;;
9124;SDS011;4597;48.730;9.114;2022-08-21T00:36:14;2.53;;;2.30;;
9124;SDS011;4597;48.730;9.114;2022-08-21T00:38:39;2.63;;;2.27;;
9124;SDS011;4597;48.730;9.114;2022-08-21T00:41:06;2.77;;;2.40;;
9124;SDS011;4597;48.730;9.114;2022-08-21T00:43:35;2.27;;;2.10;;
9124;SDS011;4597;48.730;9.114;2022-08-21T00:46:03;6.67;;;2.63;;
9124;SDS011;4597;48.730;9.114;2022-08-21T00:48:29;2.80;;;2.60;;
9124;SDS011;4597;48.730;9.114;2022-08-21T00:51:02;2.57;;;2.37;;
9124;SDS011;4597;48.730;9.114;2022-08-21T00:53:54;3.13;;;2.30;;
9124;SDS011;4597;48.730;9.114;2022-08-21T00:56:23;3.27;;;2.40;;
9124;SDS011;4597;48.730;9.114;2022-08-21T00:58:49;2.40;;;2.20;;
9124;SDS011;4597;48.730;9.114;2022-08-21T01:01:16;3.57;;;2.30;;
9124;SDS011;4597;48.730;9.114;2022-08-21T01:03:42;3.23;;;2.37;;
9124;SDS011;4597;48.730;9.114;2022-08-21T01:06:08;3.93;;;2.30;;
9124;SDS011;4597;48.730;9.114;2022-08-21T01:08:33;3.43;;;2.47;;
9124;SDS011;4597;48.730;9.114;2022-08-21T01:11:00;3.03;;;2.50;;
9124;SDS011;4597;48.730;9.114;2022-08-21T01:13:27;2.40;;;2.07;;
9124;SDS011;4597;48.730;9.114;2022-08-21T01:15:55;3.13;;;2.33;;
9124;SDS011;4597;48.730;9.114;2022-08-21T01:18:24;4.90;;;2.53;;
9124;SDS011;4597;48.730;9.114;2022-08-21T01:20:58;3.00;;;2.50;;
9124;SDS011;4597;48.730;9.114;2022-08-21T01:23:35;3.03;;;2.50;;
9124;SDS011;4597;48.730;9.114;2022-08-21T01:26:02;2.50;;;2.33;;
9124;SDS011;4597;48.730;9.114;2022-08-21T01:28:29;2.67;;;2.47;;
9124;SDS011;4597;48.730;9.114;2022-08-21T01:30:59;3.87;;;2.57;;
9124;SDS011;4597;48.730;9.114;2022-08-21T01:33:27;2.63;;;2.43;;
9124;SDS011;4597;48.730;9.114;2022-08-21T01:35:53;3.43;;;2.53;;
9124;SDS011;4597;48.730;9.114;2022-08-21T01:38:19;3.20;;;2.90;;
9124;SDS011;4597;48.730;9.114;2022-08-21T01:40:45;4.83;;;2.43;;
9124;SDS011;4597;48.730;9.114;2022-08-21T01:43:10;2.60;;;2.33;;
9124;SDS011;4597;48.730;9.114;2022-08-21T01:45:36;4.37;;;2.80;;
9124;SDS011;4597;48.730;9.114;2022-08-21T01:48:02;2.40;;;2.20;;
9124;SDS011;4597;48.730;9.114;2022-08-21T01:50:28;2.80;;;2.50;;
9124;SDS011;4597;48.730;9.114;2022-08-21T01:52:54;2.80;;;2.60;;
9124;SDS011;4597;48.730;9.114;2022-08-21T01:55:20;3.47;;;2.47;;
9124;SDS011;4597;48.730;9.114;2022-08-21T01:57:46;3.33;;;2.30;;
9124;SDS011;4597;48.730;9.114;2022-08-21T02:00:13;4.30;;;2.60;;
9124;SDS011;4597;48.730;9.114;2022-08-21T02:02:41;2.47;;;2.27;;
9124;SDS011;4597;48.730;9.114;2022-08-21T02:05:07;3.03;;;2.20;;
9124;SDS011;4597;48.730;9.114;2022-08-21T02:07:38;3.10;;;2.47;;
9124;SDS011;4597;48.730;9.114;2022-08-21T02:10:11;3.80;;;2.50;;
9124;SDS011;4597;48.730;9.114;2022-08-21T02:12:38;4.30;;;2.70;;
9124;SDS011;4597;48.730;9.114;2022-08-21T02:15:04;3.00;;;2.50;;
9124;SDS011;4597;48.730;9.114;2022-08-21T02:17:38;2.70;;;2.50;;
9124;SDS011;4597;48.730;9.114;2022-08-21T02:20:06;3.17;;;2.53;;
9124;SDS011;4597;48.730;9.114;2022-08-21T02:22:33;4.77;;;2.67;;
9124;SDS011;4597;48.730;9.114;2022-08-21T02:24:58;3.73;;;2.60;;
9124;SDS011;4597;48.730;9.114;2022-08-21T02:27:24;3.33;;;2.67;;
9124;SDS011;4597;48.730;9.114;2022-08-21T02:29:50;3.27;;;2.33;;
9124;SDS011;4597;48.730;9.114;2022-08-21T02:32:15;4.17;;;2.87;;
9124;SDS011;4597;48.730;9.114;2022-08-21T02:34:41;3.30;;;2.60;;
9124;SDS011;4597;48.730;9.114;2022-08-21T02:37:06;5.57;;;2.90;;
9124;SDS011;4597;48.730;9.114;2022-08-21T02:39:32;2.90;;;2.70;;
9124;SDS011;4597;48.730;9.114;2022-08-21T02:41:57;3.13;;;2.90;;
9124;SDS011;4597;48.730;9.114;2022-08-21T02:44:23;4.40;;;2.97;;
9124;SDS011;4597;48.730;9.114;2022-08-21T02:46:48;3.10;;;2.67;;
9124;SDS011;4597;48.730;9.114;2022-08-21T02:49:14;3.10;;;2.80;;
9124;SDS011;4597;48.730;9.114;2022-08-21T02:51:39;4.23;;;2.63;;
9124;SDS011;4597;48.730;9.114;2022-08-21T02:54:06;2.90;;;2.70;;
9124;SDS011;4597;48.730;9.114;2022-08-21T02:56:31;4.00;;;2.97;;
9124;SDS011;4597;48.730;9.114;2022-08-21T02:58:57;2.57;;;2.37;;
9124;SDS011;4597;48.730;9.114;2022-08-21T03:01:22;2.63;;;2.43;;
9124;SDS011;4597;48.730;9.114;2022-08-21T03:03:48;3.27;;;3.00;;
9124;SDS011;4597;48.730;9.114;2022-08-21T03:06:17;2.60;;;2.40;;
9124;SDS011;4597;48.730;9.114;2022-08-21T03:08:44;3.73;;;2.77;;
9124;SDS011;4597;48.730;9.114;2022-08-21T03:11:10;3.67;;;2.90;;
9124;SDS011;4597;48.730;9.114;2022-08-21T03:13:36;3.03;;;2.70;;
9124;SDS011;4597;48.730;9.114;2022-08-21T03:16:02;2.73;;;2.47;;
9124;SDS011;4597;48.730;9.114;2022-08-21T03:18:27;3.57;;;2.60;;
9124;SDS011;4597;48.730;9.114;2022-08-21T03:20:53;3.20;;;2.80;;
9124;SDS011;4597;48.730;9.114;2022-08-21T03:23:19;3.93;;;2.70;;
9124;SDS011;4597;48.730;9.114;2022-08-21T03:25:45;2.87;;;2.60;;
9124;SDS011;4597;48.730;9.114;2022-08-21T03:28:13;3.07;;;2.70;;
9124;SDS011;4597;48.730;9.114;2022-08-21T03:30:41;3.03;;;2.83;;
9124;SDS011;4597;48.730;9.114;2022-08-21T03:33:08;2.50;;;2.37;;
9124;SDS011;4597;48.730;9.114;2022-08-21T03:35:34;3.13;;;2.80;;
9124;SDS011;4597;48.730;9.114;2022-08-21T03:38:00;3.97;;;2.50;;
9124;SDS011;4597;48.730;9.114;2022-08-21T03:40:25;4.17;;;2.80;;
9124;SDS011;4597;48.730;9.114;2022-08-21T03:42:51;3.07;;;2.77;;
9124;SDS011;4597;48.730;9.114;2022-08-21T03:45:17;3.23;;;2.80;;
9124;SDS011;4597;48.730;9.114;2022-08-21T03:47:54;3.10;;;2.87;;
9124;SDS011;4597;48.730;9.114;2022-08-21T03:50:22;3.10;;;2.90;;
9124;SDS011;4597;48.730;9.114;2022-08-21T03:52:49;2.83;;;2.63;;
9124;SDS011;4597;48.730;9.114;2022-08-21T03:55:14;3.07;;;2.53;;
9124;SDS011;4597;48.730;9.114;2022-08-21T03:57:40;3.17;;;2.53;;
9124;SDS011;4597;48.730;9.114;2022-08-21T04:00:06;2.90;;;2.67;;
9124;SDS011;4597;48.730;9.114;2022-08-21T04:02:34;2.67;;;2.47;;
9124;SDS011;4597;48.730;9.114;2022-08-21T04:05:00;2.87;;;2.57;;
9124;SDS011;4597;48.730;9.114;2022-08-21T04:07:25;3.13;;;2.60;;
9124;SDS011;4597;48.730;9.114;2022-08-21T04:09:51;2.83;;;2.67;;
9124;SDS011;4597;48.730;9.114;2022-08-21T04:12:16;2.83;;;2.40;;
9124;SDS011;4597;48.730;9.114;2022-08-21T04:14:42;3.17;;;2.87;;
9124;SDS011;4597;48.730;9.114;2022-08-21T04:17:07;2.70;;;2.50;;
9124;SDS011;4597;48.730;9.114;2022-08-21T04:19:33;3.37;;;2.57;;
9124;SDS011;4597;48.730;9.114;2022-08-21T04:21:58;3.37;;;2.93;;
9124;SDS011;4597;48.730;9.114;2022-08-21T04:24:24;3.40;;;2.80;;
9124;SDS011;4597;48.730;9.114;2022-08-21T04:26:49;4.10;;;2.87;;
9124;SDS011;4597;48.730;9.114;2022-08-21T04:29:15;5.93;;;2.83;;
9124;SDS011;4597;48.730;9.114;2022-08-21T04:31:40;3.20;;;2.53;;
9124;SDS011;4597;48.730;9.114;2022-08-21T04:34:08;3.00;;;2.70;;
9124;SDS011;4597;48.730;9.114;2022-08-21T04:36:34;2.80;;;2.57;;
9124;SDS011;4597;48.730;9.114;2022-08-21T04:38:59;2.80;;;2.60;;
9124;SDS011;4597;48.730;9.114;2022-08-21T04:41:25;3.70;;;2.83;;
9124;SDS011;4597;48.730;9.114;2022-08-21T04:43:51;3.13;;;2.80;;
9124;SDS011;4597;48.730;9.114;2022-08-21T04:46:16;3.80;;;2.90;;
9124;SDS011;4597;48.730;9.114;2022-08-21T04:48:42;2.97;;;2.77;;
9124;SDS011;4597;48.730;9.114;2022-08-21T04:53:46;3.20;;;3.00;;
9124;SDS011;4597;48.730;9.114;2022-08-21T04:56:59;3.93;;;2.63;;
9124;SDS011;4597;48.730;9.114;2022-08-21T04:59:15;2.83;;;2.60;;
9124;SDS011;4597;48.730;9.114;2022-08-21T05:01:51;3.00;;;2.80;;
9124;SDS011;4597;48.730;9.114;2022-08-21T05:04:20;2.87;;;2.67;;
9124;SDS011;4597;48.730;9.114;2022-08-21T05:06:49;4.93;;;2.60;;
9124;SDS011;4597;48.730;9.114;2022-08-21T05:09:19;2.97;;;2.63;;
9124;SDS011;4597;48.730;9.114;2022-08-21T05:11:45;3.40;;;2.90;;
9124;SDS011;4597;48.730;9.114;2022-08-21T05:14:11;3.10;;;2.67;;
9124;SDS011;4597;48.730;9.114;2022-08-21T05:16:38;4.57;;;3.07;;
9124;SDS011;4597;48.730;9.114;2022-08-21T05:19:07;2.80;;;2.63;;
9124;SDS011;4597;48.730;9.114;2022-08-21T05:21:37;2.77;;;2.57;;
9124;SDS011;4597;48.730;9.114;2022-08-21T05:24:05;4.03;;;2.93;;
9124;SDS011;4597;48.730;9.114;2022-08-21T05:26:31;3.23;;;2.93;;
9124;SDS011;4597;48.730;9.114;2022-08-21T05:28:56;2.97;;;2.73;;
9124;SDS011;4597;48.730;9.114;2022-08-21T05:31:22;3.37;;;3.07;;
9124;SDS011;4597;48.730;9.114;2022-08-21T05:33:48;3.13;;;2.93;;
9124;SDS011;4597;48.730;9.114;2022-08-21T05:36:13;3.30;;;3.00;;
9124;SDS011;4597;48.730;9.114;2022-08-21T05:38:39;3.60;;;3.30;;
9124;SDS011;4597;48.730;9.114;2022-08-21T05:41:05;3.03;;;2.80;;
9124;SDS011;4597;48.730;9.114;2022-08-21T05:43:32;3.73;;;3.43;;
9124;SDS011;4597;48.730;9.114;2022-08-21T05:46:00;3.63;;;2.70;;
9124;SDS011;4597;48.730;9.114;2022-08-21T05:48:30;3.83;;;3.43;;
9124;SDS011;4597;48.730;9.114;2022-08-21T05:50:56;3.53;;;3.20;;
9124;SDS011;4597;48.730;9.114;2022-08-21T05:53:22;4.40;;;2.90;;
9124;SDS011;4597;48.730;9.114;2022-08-21T05:55:49;3.10;;;2.80;;
9124;SDS011;4597;48.730;9.114;2022-08-21T05:58:16;3.73;;;3.00;;
9124;SDS011;4597;48.730;9.114;2022-08-21T06:00:44;4.00;;;3.20;;
9124;SDS011;4597;48.730;9.114;2022-08-21T06:03:13;3.57;;;3.00;;
9124;SDS011;4597;48.730;9.114;2022-08-21T06:05:49;3.27;;;2.97;;
9124;SDS011;4597;48.730;9.114;2022-08-21T06:08:15;5.17;;;3.03;;
9124;SDS011;4597;48.730;9.114;2022-08-21T06:10:42;2.90;;;2.60;;
9124;SDS011;4597;48.730;9.114;2022-08-21T06:13:09;3.60;;;3.17;;
9124;SDS011;4597;48.730;9.114;2022-08-21T06:15:36;2.90;;;2.70;;
9124;SDS011;4597;48.730;9.114;2022-08-21T06:18:01;4.23;;;3.37;;
9124;SDS011;4597;48.730;9.114;2022-08-21T06:20:27;5.33;;;3.13;;
9124;SDS011;4597;48.730;9.114;2022-08-21T06:22:53;3.10;;;2.80;;
9124;SDS011;4597;48.730;9.114;2022-08-21T06:25:19;3.17;;;2.87;;
9124;SDS011;4597;48.730;9.114;2022-08-21T06:27:44;3.73;;;3.27;;
9124;SDS011;4597;48.730;9.114;2022-08-21T06:30:11;3.33;;;3.03;;
9124;SDS011;4597;48.730;9.114;2022-08-21T06:32:36;3.93;;;3.50;;
9124;SDS011;4597;48.730;9.114;2022-08-21T06:35:03;3.97;;;2.90;;
9124;SDS011;4597;48.730;9.114;2022-08-21T06:37:29;6.23;;;3.47;;
9124;SDS011;4597;48.730;9.114;2022-08-21T06:39:54;3.80;;;3.30;;
9124;SDS011;4597;48.730;9.114;2022-08-21T06:42:20;3.33;;;3.03;;
9124;SDS011;4597;48.730;9.114;2022-08-21T06:44:46;3.60;;;3.13;;
9124;SDS011;4597;48.730;9.114;2022-08-21T06:47:12;3.80;;;2.83;;
9124;SDS011;4597;48.730;9.114;2022-08-21T06:49:38;3.40;;;3.20;;
9124;SDS011;4597;48.730;9.114;2022-08-21T06:52:07;3.93;;;3.00;;
9124;SDS011;4597;48.730;9.114;2022-08-21T06:54:33;3.93;;;3.00;;
9124;SDS011;4597;48.730;9.114;2022-08-21T06:56:59;4.27;;;3.47;;
9124;SDS011;4597;48.730;9.114;2022-08-21T06:59:24;4.23;;;3.67;;
9124;SDS011;4597;48.730;9.114;2022-08-21T07:01:50;4.20;;;3.17;;
9124;SDS011;4597;48.730;9.114;2022-08-21T07:04:15;3.33;;;3.03;;
9124;SDS011;4597;48.730;9.114;2022-08-21T07:06:41;4.33;;;3.17;;
9124;SDS011;4597;48.730;9.114;2022-08-21T07:09:06;3.40;;;3.10;;
9124;SDS011;4597;48.730;9.114;2022-08-21T07:11:32;4.87;;;3.00;;
9124;SDS011;4597;48.730;9.114;2022-08-21T07:14:00;3.70;;;2.80;;
9124;SDS011;4597;48.730;9.114;2022-08-21T07:16:25;4.07;;;3.10;;
9124;SDS011;4597;48.730;9.114;2022-08-21T07:18:51;3.70;;;2.80;;
9124;SDS011;4597;48.730;9.114;2022-08-21T07:21:16;3.50;;;3.20;;
9124;SDS011;4597;48.730;9.114;2022-08-21T07:23:44;4.97;;;3.27;;
9124;SDS011;4597;48.730;9.114;2022-08-21T07:26:11;3.57;;;3.27;;
9124;SDS011;4597;48.730;9.114;2022-08-21T07:28:38;3.03;;;2.70;;
9124;SDS011;4597;48.730;9.114;2022-08-21T07:31:04;3.47;;;3.17;;
9124;SDS011;4597;48.730;9.114;2022-08-21T07:33:30;4.67;;;3.40;;
9124;SDS011;4597;48.730;9.114;2022-08-21T07:35:57;5.10;;;3.30;;
9124;SDS011;4597;48.730;9.114;2022-08-21T07:38:23;6.27;;;3.20;;
9124;SDS011;4597;48.730;9.114;2022-08-21T07:40:49;7.63;;;2.97;;
9124;SDS011;4597;48.730;9.114;2022-08-21T07:43:17;4.60;;;3.17;;
9124;SDS011;4597;48.730;9.114;2022-08-21T07:45:43;3.80;;;3.07;;
9124;SDS011;4597;48.730;9.114;2022-08-21T07:48:09;5.83;;;3.57;;
9124;SDS011;4597;48.730;9.114;2022-08-21T07:50:35;4.47;;;3.47;;
9124;SDS011;4597;48.730;9.114;2022-08-21T07:53:00;6.33;;;3.60;;
9124;SDS011;4597;48.730;9.114;2022-08-21T07:55:27;4.27;;;3.40;;
9124;SDS011;4597;48.730;9.114;2022-08-21T07:57:53;4.93;;;3.30;;
9124;SDS011;4597;48.730;9.114;2022-08-21T08:00:19;3.63;;;3.23;;
9124;SDS011;4597;48.730;9.114;2022-08-21T08:02:48;5.27;;;3.30;;
9124;SDS011;4597;48.730;9.114;2022-08-21T08:05:15;5.73;;;4.10;;
9124;SDS011;4597;48.730;9.114;2022-08-21T08:07:42;6.63;;;3.47;;
9124;SDS011;4597;48.730;9.114;2022-08-21T08:10:08;5.80;;;4.10;;
9124;SDS011;4597;48.730;9.114;2022-08-21T08:12:35;5.60;;;3.70;;
9124;SDS011;4597;48.730;9.114;2022-08-21T08:15:05;6.17;;;4.47;;
9124;SDS011;4597;48.730;9.114;2022-08-21T08:17:32;4.80;;;4.20;;
9124;SDS011;4597;48.730;9.114;2022-08-21T08:19:58;4.90;;;3.90;;
9124;SDS011;4597;48.730;9.114;2022-08-21T08:22:26;6.77;;;3.90;;
9124;SDS011;4597;48.730;9.114;2022-08-21T08:24:52;6.20;;;4.27;;
9124;SDS011;4597;48.730;9.114;2022-08-21T08:27:18;4.17;;;3.63;;
9124;SDS011;4597;48.730;9.114;2022-08-21T08:29:44;7.20;;;4.23;;
9124;SDS011;4597;48.730;9.114;2022-08-21T08:32:10;4.03;;;3.60;;
9124;SDS011;4597;48.730;9.114;2022-08-21T08:34:36;6.27;;;4.10;;
9124;SDS011;4597;48.730;9.114;2022-08-21T08:37:03;8.07;;;4.20;;
9124;SDS011;4597;48.730;9.114;2022-08-21T08:39:30;7.63;;;4.47;;
9124;SDS011;4597;48.730;9.114;2022-08-21T08:42:17;5.23;;;4.30;;
9124;SDS011;4597;48.730;9.114;2022-08-21T08:44:45;5.80;;;4.63;;
9124;SDS011;4597;48.730;9.114;2022-08-21T08:47:13;6.20;;;4.23;;
9124;SDS011;4597;48.730;9.114;2022-08-21T08:49:53;5.87;;;4.33;;
9124;SDS011;4597;48.730;9.114;2022-08-21T08:57:43;5.00;;;3.70;;
9124;SDS011;4597;48.730;9.114;2022-08-21T09:00:12;6.43;;;4.47;;
9124;SDS011;4597;48.730;9.114;2022-08-21T09:02:40;4.53;;;4.13;;
9124;SDS011;4597;48.730;9.114;2022-08-21T09:05:09;5.27;;;4.07;;
9124;SDS011;4597;48.730;9.114;2022-08-21T09:08:09;4.10;;;3.80;;
9124;SDS011;4597;48.730;9.114;2022-08-21T09:13:07;4.33;;;3.80;;
9124;SDS011;4597;48.730;9.114;2022-08-21T09:18:30;5.17;;;3.63;;
9124;SDS011;4597;48.730;9.114;2022-08-21T09:26:25;5.87;;;3.60;;
9124;SDS011;4597;48.730;9.114;2022-08-21T09:28:56;4.70;;;3.70;;
9124;SDS011;4597;48.730;9.114;2022-08-21T09:33:56;5.30;;;3.77;;
9124;SDS011;4597;48.730;9.114;2022-08-21T09:36:32;6.73;;;3.70;;
9124;SDS011;4597;48.730;9.114;2022-08-21T09:39:10;9.90;;;4.37;;
9124;SDS011;4597;48.730;9.114;2022-08-21T09:41:37;5.00;;;3.53;;
9124;SDS011;4597;48.730;9.114;2022-08-21T09:44:05;6.07;;;3.47;;
9124;SDS011;4597;48.730;9.114;2022-08-21T09:46:32;5.00;;;3.53;;
9124;SDS011;4597;48.730;9.114;2022-08-21T09:48:58;5.97;;;3.50;;
9124;SDS011;4597;48.730;9.114;2022-08-21T09:51:27;5.13;;;3.10;;
9124;SDS011;4597;48.730;9.114;2022-08-21T09:54:10;3.97;;;3.63;;
9124;SDS011;4597;48.730;9.114;2022-08-21T09:56:50;5.57;;;3.53;;
9124;SDS011;4597;48.730;9.114;2022-08-21T09:59:40;6.07;;;3.20;;
9124;SDS011;4597;48.730;9.114;2022-08-21T10:02:26;3.83;;;3.03;;
9124;SDS011;4597;48.730;9.114;2022-08-21T10:05:38;6.73;;;3.80;;
9124;SDS011;4597;48.730;9.114;2022-08-21T10:07:43;5.53;;;3.37;;
9124;SDS011;4597;48.730;9.114;2022-08-21T10:10:14;5.03;;;3.50;;
9124;SDS011;4597;48.730;9.114;2022-08-21T10:18:27;4.90;;;3.37;;
9124;SDS011;4597;48.730;9.114;2022-08-21T10:21:28;4.93;;;3.27;;
9124;SDS011;4597;48.730;9.114;2022-08-21T10:24:27;8.67;;;4.00;;
9124;SDS011;4597;48.730;9.114;2022-08-21T10:27:09;4.87;;;3.13;;
9124;SDS011;4597;48.730;9.114;2022-08-21T10:35:31;7.27;;;3.87;;
9124;SDS011;4597;48.730;9.114;2022-08-21T10:40:43;4.37;;;3.07;;
9124;SDS011;4597;48.730;9.114;2022-08-21T10:46:06;4.77;;;3.50;;
9124;SDS011;4597;48.730;9.114;2022-08-21T10:49:08;4.25;;;2.85;;
9124;SDS011;4597;48.730;9.114;2022-08-21T11:00:24;3.88;;;3.55;;
9124;SDS011;4597;48.730;9.114;2022-08-21T11:05:29;3.72;;;3.30;;
9124;SDS011;4597;48.730;9.114;2022-08-21T11:08:26;6.60;;;3.45;;
9124;SDS011;4597;48.730;9.114;2022-08-21T11:11:05;4.20;;;3.20;;
9124;SDS011;4597;48.730;9.114;2022-08-21T11:27:26;4.00;;;3.50;;
9124;SDS011;4597;48.730;9.114;2022-08-21T11:29:59;6.15;;;3.35;;
9124;SDS011;4597;48.730;9.114;2022-08-21T11:43:35;3.47;;;2.95;;
9124;SDS011;4597;48.730;9.114;2022-08-21T11:51:10;4.07;;;3.20;;
9124;SDS011;4597;48.730;9.114;2022-08-21T11:53:44;6.43;;;3.30;;
9124;SDS011;4597;48.730;9.114;2022-08-21T11:56:26;3.20;;;3.00;;
9124;SDS011;4597;48.730;9.114;2022-08-21T11:59:02;4.47;;;3.17;;
9124;SDS011;4597;48.730;9.114;2022-08-21T12:01:34;3.33;;;3.13;;
9124;SDS011;4597;48.730;9.114;2022-08-21T12:04:49;3.63;;;3.15;;
9124;SDS011;4597;48.730;9.114;2022-08-21T12:07:08;5.57;;;3.20;;
9124;SDS011;4597;48.730;9.114;2022-08-21T12:09:39;6.57;;;3.35;;
9124;SDS011;4597;48.730;9.114;2022-08-21T12:15:17;3.40;;;3.08;;
9124;SDS011;4597;48.730;9.114;2022-08-21T12:18:35;3.38;;;3.05;;
9124;SDS011;4597;48.730;9.114;2022-08-21T12:23:29;3.40;;;3.10;;
9124;SDS011;4597;48.730;9.114;2022-08-21T12:28:47;10.90;;;3.67;;
9124;SDS011;4597;48.730;9.114;2022-08-21T12:31:24;6.55;;;3.28;;
9124;SDS011;4597;48.730;9.114;2022-08-21T12:33:52;4.82;;;3.50;;
9124;SDS011;4597;48.730;9.114;2022-08-21T12:36:23;4.40;;;3.40;;
9124;SDS011;4597;48.730;9.114;2022-08-21T12:38:56;5.03;;;3.40;;
9124;SDS011;4597;48.730;9.114;2022-08-21T12:41:27;3.75;;;3.42;;
9124;SDS011;4597;48.730;9.114;2022-08-21T12:44:07;6.30;;;3.60;;
9124;SDS011;4597;48.730;9.114;2022-08-21T12:46:45;4.38;;;3.80;;
9124;SDS011;4597;48.730;9.114;2022-08-21T12:49:43;5.10;;;3.28;;
9124;SDS011;4597;48.730;9.114;2022-08-21T12:52:25;5.75;;;3.42;;
9124;SDS011;4597;48.730;9.114;2022-08-21T12:54:55;4.28;;;3.55;;
9124;SDS011;4597;48.730;9.114;2022-08-21T12:57:22;3.40;;;3.10;;
9124;SDS011;4597;48.730;9.114;2022-08-21T12:59:53;4.40;;;3.22;;
9124;SDS011;4597;48.730;9.114;2022-08-21T13:02:22;4.03;;;3.42;;
9124;SDS011;4597;48.730;9.114;2022-08-21T13:04:51;3.63;;;3.30;;
9124;SDS011;4597;48.730;9.114;2022-08-21T13:07:22;4.25;;;3.30;;
9124;SDS011;4597;48.730;9.114;2022-08-21T13:09:55;5.10;;;3.17;;
9124;SDS011;4597;48.730;9.114;2022-08-21T13:12:38;5.05;;;3.38;;
9124;SDS011;4597;48.730;9.114;2022-08-21T13:15:07;4.70;;;3.10;;
9124;SDS011;4597;48.730;9.114;2022-08-21T13:17:34;3.13;;;2.90;;
9124;SDS011;4597;48.730;9.114;2022-08-21T13:20:09;7.78;;;3.15;;
9124;SDS011;4597;48.730;9.114;2022-08-21T13:22:45;3.85;;;3.22;;
9124;SDS011;4597;48.730;9.114;2022-08-21T13:25:12;3.25;;;2.92;;
9124;SDS011;4597;48.730;9.114;2022-08-21T13:27:40;3.90;;;3.45;;
9124;SDS011;4597;48.730;9.114;2022-08-21T13:30:19;3.40;;;3.10;;
9124;SDS011;4597;48.730;9.114;2022-08-21T13:32:51;3.25;;;3.00;;
9124;SDS011;4597;48.730;9.114;2022-08-21T13:35:22;4.47;;;3.47;;
9124;SDS011;4597;48.730;9.114;2022-08-21T13:37:55;4.75;;;3.25;;
9124;SDS011;4597;48.730;9.114;2022-08-21T13:40:24;3.97;;;2.90;;
9124;SDS011;4597;48.730;9.114;2022-08-21T13:42:52;3.90;;;3.28;;
9124;SDS011;4597;48.730;9.114;2022-08-21T13:45:27;3.42;;;3.13;;
9124;SDS011;4597;48.730;9.114;2022-08-21T13:47:56;4.13;;;3.42;;
9124;SDS011;4597;48.730;9.114;2022-08-21T13:50:24;4.88;;;3.47;;
9124;SDS011;4597;48.730;9.114;2022-08-21T13:53:20;4.38;;;3.80;;
9124;SDS011;4597;48.730;9.114;2022-08-21T13:55:59;3.60;;;3.30;;
9124;SDS011;4597;48.730;9.114;2022-08-21T13:58:27;4.63;;;3.15;;
9124;SDS011;4597;48.730;9.114;2022-08-21T14:00:53;3.55;;;3.33;;
9124;SDS011;4597;48.730;9.114;2022-08-21T14:03:30;4.43;;;3.50;;
9124;SDS011;4597;48.730;9.114;2022-08-21T14:06:10;4.30;;;3.50;;
9124;SDS011;4597;48.730;9.114;2022-08-21T14:08:42;3.95;;;3.25;;
9124;SDS011;4597;48.730;9.114;2022-08-21T14:11:14;3.60;;;3.30;;
9124;SDS011;4597;48.730;9.114;2022-08-21T14:13:44;4.43;;;3.50;;
9124;SDS011;4597;48.730;9.114;2022-08-21T14:16:19;4.53;;;3.15;;
9124;SDS011;4597;48.730;9.114;2022-08-21T14:18:52;3.38;;;3.05;;
9124;SDS011;4597;48.730;9.114;2022-08-21T14:21:33;3.92;;;3.63;;
9124;SDS011;4597;48.730;9.114;2022-08-21T14:24:08;3.67;;;3.45;;
9124;SDS011;4597;48.730;9.114;2022-08-21T14:26:51;4.25;;;3.85;;
9124;SDS011;4597;48.730;9.114;2022-08-21T14:29:21;4.55;;;3.60;;
9124;SDS011;4597;48.730;9.114;2022-08-21T14:31:50;6.60;;;3.92;;
9124;SDS011;4597;48.730;9.114;2022-08-21T14:34:17;4.43;;;3.60;;
9124;SDS011;4597;48.730;9.114;2022-08-21T14:36:43;5.38;;;3.83;;
9124;SDS011;4597;48.730;9.114;2022-08-21T14:39:09;8.27;;;3.80;;
9124;SDS011;4597;48.730;9.114;2022-08-21T14:41:34;5.05;;;3.50;;
9124;SDS011;4597;48.730;9.114;2022-08-21T14:44:01;4.30;;;3.80;;
9124;SDS011;4597;48.730;9.114;2022-08-21T14:46:28;3.50;;;3.20;;
9124;SDS011;4597;48.730;9.114;2022-08-21T14:48:55;3.72;;;3.40;;
9124;SDS011;4597;48.730;9.114;2022-08-21T14:51:21;7.35;;;4.28;;
9124;SDS011;4597;48.730;9.114;2022-08-21T14:53:47;3.92;;;3.55;;
9124;SDS011;4597;48.730;9.114;2022-08-21T14:56:13;4.28;;;3.80;;
9124;SDS011;4597;48.730;9.114;2022-08-21T14:58:41;4.20;;;3.90;;
9124;SDS011;4597;48.730;9.114;2022-08-21T15:01:09;4.65;;;4.25;;
9124;SDS011;4597;48.730;9.114;2022-08-21T15:03:37;5.03;;;4.10;;
9124;SDS011;4597;48.730;9.114;2022-08-21T15:06:03;4.35;;;4.10;;
9124;SDS011;4597;48.730;9.114;2022-08-21T15:08:30;4.60;;;4.20;;
9124;SDS011;4597;48.730;9.114;2022-08-21T15:10:55;4.90;;;4.50;;
9124;SDS011;4597;48.730;9.114;2022-08-21T15:13:21;6.15;;;4.40;;
9124;SDS011;4597;48.730;9.114;2022-08-21T15:15:48;4.60;;;3.90;;
9124;SDS011;4597;48.730;9.114;2022-08-21T15:18:17;4.60;;;4.15;;
9124;SDS011;4597;48.730;9.114;2022-08-21T15:20:47;4.63;;;4.32;;
9124;SDS011;4597;48.730;9.114;2022-08-21T15:23:12;4.18;;;3.97;;
9124;SDS011;4597;48.730;9.114;2022-08-21T15:25:40;4.35;;;3.95;;
9124;SDS011;4597;48.730;9.114;2022-08-21T15:28:07;4.57;;;3.72;;
9124;SDS011;4597;48.730;9.114;2022-08-21T15:30:33;3.80;;;3.55;;
9124;SDS011;4597;48.730;9.114;2022-08-21T15:33:00;3.67;;;3.38;;
9124;SDS011;4597;48.730;9.114;2022-08-21T15:35:25;5.53;;;5.03;;
9124;SDS011;4597;48.730;9.114;2022-08-21T15:37:51;4.45;;;3.38;;
9124;SDS011;4597;48.730;9.114;2022-08-21T15:40:17;4.30;;;3.90;;
9124;SDS011;4597;48.730;9.114;2022-08-21T15:42:43;4.13;;;3.83;;
9124;SDS011;4597;48.730;9.114;2022-08-21T15:45:10;4.38;;;3.97;;
9124;SDS011;4597;48.730;9.114;2022-08-21T15:47:37;4.22;;;3.85;;
9124;SDS011;4597;48.730;9.114;2022-08-21T15:50:05;4.70;;;3.58;;
9124;SDS011;4597;48.730;9.114;2022-08-21T15:52:33;5.65;;;4.05;;
9124;SDS011;4597;48.730;9.114;2022-08-21T15:54:59;4.82;;;3.53;;
9124;SDS011;4597;48.730;9.114;2022-08-21T15:57:24;3.90;;;3.50;;
9124;SDS011;4597;48.730;9.114;2022-08-21T15:59:56;4.65;;;3.65;;
9124;SDS011;4597;48.730;9.114;2022-08-21T16:02:29;4.18;;;3.25;;
9124;SDS011;4597;48.730;9.114;2022-08-21T16:04:56;4.18;;;3.88;;
9124;SDS011;4597;48.730;9.114;2022-08-21T16:07:22;4.00;;;3.20;;
9124;SDS011;4597;48.730;9.114;2022-08-21T16:09:48;4.22;;;3.80;;
9124;SDS011;4597;48.730;9.114;2022-08-21T16:12:19;3.72;;;3.42;;
9124;SDS011;4597;48.730;9.114;2022-08-21T16:14:48;3.60;;;3.30;;
9124;SDS011;4597;48.730;9.114;2022-08-21T16:17:15;3.50;;;3.30;;
9124;SDS011;4597;48.730;9.114;2022-08-21T16:19:40;4.07;;;3.67;;
9124;SDS011;4597;48.730;9.114;2022-08-21T16:22:06;4.40;;;3.38;;
9124;SDS011;4597;48.730;9.114;2022-08-21T16:24:32;5.05;;;3.50;;
9124;SDS011;4597;48.730;9.114;2022-08-21T16:26:57;3.72;;;3.42;;
9124;SDS011;4597;48.730;9.114;2022-08-21T16:29:23;4.03;;;3.63;;
9124;SDS011;4597;48.730;9.114;2022-08-21T16:31:49;3.88;;;3.58;;
9124;SDS011;4597;48.730;9.114;2022-08-21T16:34:17;3.90;;;3.55;;
9124;SDS011;4597;48.730;9.114;2022-08-21T16:36:44;3.90;;;3.67;;
9124;SDS011;4597;48.730;9.114;2022-08-21T16:39:10;4.18;;;3.88;;
9124;SDS011;4597;48.730;9.114;2022-08-21T16:41:35;4.28;;;3.97;;
9124;SDS011;4597;48.730;9.114;2022-08-21T16:44:02;4.72;;;4.35;;
9124;SDS011;4597;48.730;9.114;2022-08-21T16:46:29;4.53;;;4.22;;
9124;SDS011;4597;48.730;9.114;2022-08-21T16:48:56;4.22;;;3.95;;
9124;SDS011;4597;48.730;9.114;2022-08-21T16:51:22;4.85;;;4.55;;
9124;SDS011;4597;48.730;9.114;2022-08-21T16:53:48;5.07;;;4.68;;
9124;SDS011;4597;48.730;9.114;2022-08-21T16:56:14;5.07;;;4.68;;